CBBC

Bella Bella/Campbell Island  Airport

Bella Bella, British Columbia, Canada

CBBC 191700Z AUTO 30004KT 9SM FEW011 SCT019 BKN026 OVC040 05/04 A2951 RMK SLP996

Observed Flight Rules
Nov-19 @ 17:00 UTC (55 minutes ago)
 
Marginal Visual Flight Rules
Wind Visibility Clouds
300° at 4 knots 9 miles
  • Few at 1,100' AGL
  • Scattered at 1,900' AGL
  • Broken at 2,600' AGL
  • Overcast at 4,000' AGL
Temperatures Readings
Current 5°C / 41°F
Dewpoint 4°C / 39°F
Humidity 93%
Altimeter 29.51" Hg
Pressure 999.6 hPa
Elevation 43
Observed Flight Rules
Nov-19 @ 17:00 UTC
(55 minutes ago)
 
MVFR
Wind Visibility
300° at 4 knots 9 miles
Clouds
  • Few at 1,100' AGL
  • Scattered at 1,900' AGL
  • Broken at 2,600' AGL
  • Overcast at 4,000' AGL
Temperature Dewpoint
5°C / 41°F 4°C / 39°F
Humidity Altimeter Pressure
93% 29.51" Hg 999.6 hPa